createdAt,value
2016-07-03T00:00:15.421Z,49.65
2016-07-03T00:01:15.451Z,49.67
2016-07-03T00:02:15.569Z,50.05
2016-07-03T00:03:15.498Z,49.67
2016-07-03T00:04:15.518Z,49.87
2016-07-03T00:05:15.540Z,49.84
2016-07-03T00:06:15.567Z,50.15
2016-07-03T00:07:15.596Z,49.96
2016-07-03T00:08:15.613Z,50.15
2016-07-03T00:09:15.653Z,49.93
2016-07-03T00:10:15.664Z,50.13
2016-07-03T00:11:15.690Z,50.03
2016-07-03T00:12:15.717Z,50.25
2016-07-03T00:13:15.827Z,50.42
2016-07-03T00:14:15.764Z,50.13
2016-07-03T00:15:15.790Z,50.13
2016-07-03T00:16:15.810Z,50.13
2016-07-03T00:17:15.844Z,50.23
2016-07-03T00:18:15.865Z,50.13
2016-07-03T00:19:15.897Z,50.61
2016-07-03T00:20:15.915Z,50.32
2016-07-03T00:21:16.059Z,50.42
2016-07-03T00:22:16.020Z,50.9
2016-07-03T00:23:15.984Z,50.42
2016-07-03T00:24:16.012Z,50.51
2016-07-03T00:25:16.033Z,50.51
2016-07-03T00:26:16.167Z,50.8
2016-07-03T00:27:16.100Z,50.7
2016-07-03T00:28:16.153Z,50.61
2016-07-03T00:29:16.127Z,50.7
2016-07-03T00:30:16.259Z,50.7
2016-07-03T00:31:16.184Z,50.9
2016-07-03T00:32:16.211Z,50.99
2016-07-03T00:33:16.326Z,51.18
2016-07-03T00:34:16.260Z,50.99
2016-07-03T00:35:16.440Z,50.7
2016-07-03T00:36:16.378Z,50.99
2016-07-03T00:37:16.430Z,51.18
2016-07-03T00:38:16.356Z,50.9
2016-07-03T00:39:16.385Z,51.18
2016-07-03T00:40:16.405Z,50.9
2016-07-03T00:41:16.428Z,51.09
2016-07-03T00:42:16.453Z,51.09
2016-07-03T00:43:16.481Z,51.09
2016-07-03T00:44:16.507Z,50.99
2016-07-03T00:45:16.536Z,51.37
2016-07-03T00:46:16.558Z,51.28
2016-07-03T00:47:16.582Z,51.37
2016-07-03T00:48:16.600Z,51.47
2016-07-03T00:49:16.644Z,51.67
2016-07-03T00:50:16.649Z,51.25
2016-07-03T00:51:16.678Z,51.28
2016-07-03T00:52:16.793Z,51.45
2016-07-03T00:53:16.728Z,51.57
2016-07-03T00:54:16.751Z,51.83
2016-07-03T00:55:16.775Z,51.54
2016-07-03T00:56:16.957Z,51.73
2016-07-03T00:57:16.821Z,51.83
2016-07-03T00:58:16.846Z,52.02
2016-07-03T00:59:16.957Z,51.73
2016-07-03T01:00:16.898Z,51.73
2016-07-03T01:01:16.923Z,51.64
2016-07-03T01:02:16.944Z,51.54
2016-07-03T01:03:16.968Z,52.02
2016-07-03T01:04:16.989Z,51.93
2016-07-03T01:05:17.102Z,51.93
2016-07-03T01:06:17.040Z,51.83
2016-07-03T01:07:17.678Z,52.02
2016-07-03T01:08:17.090Z,52.02
2016-07-03T01:09:17.111Z,52.02
2016-07-03T01:10:17.136Z,52.02
2016-07-03T01:11:17.775Z,52.22
2016-07-03T01:12:17.179Z,52.12
2016-07-03T01:13:17.206Z,52.31
2016-07-03T01:14:17.226Z,52.22
2016-07-03T01:15:17.255Z,52.22
2016-07-03T01:16:17.273Z,52.5
2016-07-03T01:17:17.304Z,52.6
2016-07-03T01:18:17.405Z,52.4
2016-07-03T01:19:17.352Z,52.69
2016-07-03T01:20:17.375Z,52.31
2016-07-03T01:21:17.406Z,52.31
2016-07-03T01:22:17.428Z,52.4
2016-07-03T01:23:17.539Z,52.31
2016-07-03T01:24:17.471Z,52.69
2016-07-03T01:25:17.498Z,52.76
2016-07-03T01:26:17.519Z,52.48
2016-07-03T01:27:17.550Z,52.57
2016-07-03T01:28:17.574Z,52.4
2016-07-03T01:29:17.594Z,52.69
2016-07-03T01:30:17.619Z,52.76
2016-07-03T01:31:17.639Z,52.5
2016-07-03T01:32:17.665Z,52.76
2016-07-03T01:33:17.689Z,52.67
2016-07-03T01:34:17.711Z,52.76
2016-07-03T01:35:17.733Z,52.67
2016-07-03T01:36:17.757Z,52.76
2016-07-03T01:37:17.779Z,52.76
2016-07-03T01:38:17.808Z,52.67
2016-07-03T01:39:17.860Z,52.57
2016-07-03T01:40:17.856Z,52.86
2016-07-03T01:41:17.891Z,52.95
2016-07-03T01:42:17.904Z,52.76
2016-07-03T01:43:17.931Z,53.05
2016-07-03T01:44:18.040Z,53.24
2016-07-03T01:45:17.975Z,52.95
2016-07-03T01:46:18.007Z,53.15
2016-07-03T01:47:18.022Z,53.24
2016-07-03T01:48:18.046Z,53.24
2016-07-03T01:49:18.068Z,53.05
2016-07-03T01:50:18.094Z,53.34
2016-07-03T01:51:18.116Z,53.63
2016-07-03T01:52:18.156Z,53.63
2016-07-03T01:53:18.239Z,53.34
2016-07-03T01:54:18.193Z,53.34
2016-07-03T01:55:18.207Z,53.34
2016-07-03T01:56:18.235Z,53.24
2016-07-03T01:57:18.263Z,53.44
2016-07-03T01:58:18.282Z,53.24
2016-07-03T01:59:18.307Z,52.76
2016-07-03T02:00:18.344Z,53.05
2016-07-03T02:01:18.441Z,53.82
2016-07-03T02:02:18.383Z,53.72
2016-07-03T02:03:18.404Z,52.67
2016-07-03T02:04:18.435Z,53.72
2016-07-03T02:05:18.489Z,52.67
2016-07-03T02:06:18.478Z,53.53
2016-07-03T02:07:18.500Z,53.72
2016-07-03T02:08:18.532Z,53.63
2016-07-03T02:09:18.546Z,53.72
2016-07-03T02:10:18.574Z,53.63
2016-07-03T02:11:18.595Z,53.72
2016-07-03T02:12:18.618Z,53.72
2016-07-03T02:13:18.643Z,53.63
2016-07-03T02:14:18.665Z,53.44
2016-07-03T02:15:18.689Z,53.03
2016-07-03T02:16:18.708Z,53.79
2016-07-03T02:17:18.752Z,53.15
2016-07-03T02:18:18.773Z,53.7
2016-07-03T02:19:18.781Z,53.82
2016-07-03T02:20:18.809Z,54.01
2016-07-03T02:21:18.828Z,53.99
2016-07-03T02:22:18.862Z,54.17
2016-07-03T02:23:18.983Z,54.17
2016-07-03T02:24:18.981Z,53.79
2016-07-03T02:25:18.988Z,54.17
2016-07-03T02:26:19.153Z,53.99
2016-07-03T02:27:19.162Z,53.99
2016-07-03T02:28:19.165Z,54.66
2016-07-03T02:29:19.084Z,54.66
2016-07-03T02:30:19.181Z,53.89
2016-07-03T02:31:19.193Z,54.66
2016-07-03T02:32:19.201Z,53.7
2016-07-03T02:33:19.200Z,54.17
2016-07-03T02:34:19.209Z,54.56
2016-07-03T02:35:19.351Z,54.46
2016-07-03T02:36:19.266Z,54.46
2016-07-03T02:37:19.266Z,54.27
2016-07-03T02:38:19.274Z,54.27
2016-07-03T02:39:19.444Z,54.37
2016-07-03T02:40:19.393Z,53.89
2016-07-03T02:41:19.399Z,53.79
2016-07-03T02:42:19.410Z,53.99
2016-07-03T02:43:19.392Z,54.08
2016-07-03T02:44:19.404Z,54.66
2016-07-03T02:45:19.489Z,54.27
2016-07-03T02:46:19.426Z,54.66
2016-07-03T02:47:19.443Z,53.99
2016-07-03T02:48:19.471Z,53.99
2016-07-03T02:49:19.493Z,54.56
2016-07-03T02:50:19.723Z,53.89
2016-07-03T02:51:19.537Z,54.08
2016-07-03T02:52:19.564Z,54.46
2016-07-03T02:53:19.583Z,54.27
2016-07-03T02:54:19.610Z,54.66
2016-07-03T02:55:19.630Z,54.56
2016-07-03T02:56:19.655Z,54.37
2016-07-03T02:57:19.679Z,54.75
2016-07-03T02:58:19.701Z,55.04
2016-07-03T02:59:19.725Z,54.94
2016-07-03T03:00:19.747Z,54.17
2016-07-03T03:01:19.774Z,54.27
2016-07-03T03:02:19.795Z,54.27
2016-07-03T03:03:19.819Z,54.94
2016-07-03T03:04:19.842Z,54.91
2016-07-03T03:05:19.875Z,54.44
2016-07-03T03:06:19.898Z,54.91
2016-07-03T03:07:19.913Z,54.44
2016-07-03T03:08:19.936Z,55.04
2016-07-03T03:09:19.981Z,54.94
2016-07-03T03:10:19.981Z,54.91
2016-07-03T03:11:20.006Z,54.82
2016-07-03T03:12:20.029Z,54.94
2016-07-03T03:13:20.055Z,55.04
2016-07-03T03:14:20.079Z,54.53
2016-07-03T03:15:20.093Z,54.44
2016-07-03T03:16:20.119Z,54.94
2016-07-03T03:17:20.142Z,55.21
2016-07-03T03:18:20.167Z,55.49
2016-07-03T03:19:20.189Z,55.3
2016-07-03T03:20:20.215Z,55.21
2016-07-03T03:21:20.236Z,55.21
2016-07-03T03:22:20.268Z,55.21
2016-07-03T03:23:20.288Z,55.21
2016-07-03T03:24:20.308Z,55.21
2016-07-03T03:25:20.330Z,55.21
2016-07-03T03:26:20.353Z,55.21
2016-07-03T03:27:20.376Z,55.21
2016-07-03T03:28:20.404Z,55.11
2016-07-03T03:29:20.426Z,55.01
2016-07-03T03:30:20.448Z,55.21
2016-07-03T03:31:20.468Z,55.01
2016-07-03T03:32:20.494Z,55.58
2016-07-03T03:33:20.517Z,55.21
2016-07-03T03:34:20.547Z,55.4
2016-07-03T03:35:20.564Z,55.87
2016-07-03T03:36:20.592Z,55.68
2016-07-03T03:37:20.607Z,55.78
2016-07-03T03:38:20.628Z,55.68
2016-07-03T03:39:20.656Z,55.21
2016-07-03T03:40:20.711Z,55.68
2016-07-03T03:41:20.697Z,55.49
2016-07-03T03:42:20.723Z,55.58
2016-07-03T03:43:20.746Z,55.58
2016-07-03T03:44:20.832Z,55.49
2016-07-03T03:45:20.797Z,55.68
2016-07-03T03:46:20.819Z,55.68
2016-07-03T03:47:20.843Z,55.49
2016-07-03T03:48:20.864Z,55.01
2016-07-03T03:49:20.891Z,55.49
2016-07-03T03:50:20.911Z,55.21
2016-07-03T03:51:20.938Z,55.4
2016-07-03T03:52:20.955Z,55.68
2016-07-03T03:53:20.981Z,55.58
2016-07-03T03:54:20.996Z,55.21
2016-07-03T03:55:21.027Z,55.58
2016-07-03T03:56:21.050Z,55.4
2016-07-03T03:57:21.074Z,55.11
2016-07-03T03:58:21.098Z,55.97
2016-07-03T03:59:21.118Z,55.68
2016-07-03T04:00:21.144Z,55.78
2016-07-03T04:01:21.165Z,56.07
2016-07-03T04:02:21.190Z,55.78
2016-07-03T04:03:21.205Z,55.4
2016-07-03T04:04:21.232Z,55.87
2016-07-03T04:05:21.259Z,55.68
2016-07-03T04:06:21.280Z,55.97
2016-07-03T04:07:21.301Z,55.87
2016-07-03T04:08:21.324Z,56.07
2016-07-03T04:09:21.355Z,55.97
2016-07-03T04:10:21.367Z,55.4
2016-07-03T04:11:21.393Z,55.4
2016-07-03T04:12:21.411Z,55.97
2016-07-03T04:13:21.441Z,55.97
2016-07-03T04:14:21.459Z,56.16
2016-07-03T04:15:21.490Z,56.07
2016-07-03T04:16:21.504Z,56.16
2016-07-03T04:17:21.532Z,56.16
2016-07-03T04:18:21.553Z,55.58
2016-07-03T04:19:21.580Z,55.78
2016-07-03T04:20:21.597Z,55.68
2016-07-03T04:21:21.618Z,55.97
2016-07-03T04:22:21.649Z,56.16
2016-07-03T04:23:21.669Z,55.58
2016-07-03T04:24:21.695Z,55.87
2016-07-03T04:25:21.720Z,56.26
2016-07-03T04:26:21.740Z,56.07
2016-07-03T04:27:21.765Z,56.16
2016-07-03T04:28:21.998Z,56.16
2016-07-03T04:29:21.813Z,55.78
2016-07-03T04:30:21.830Z,56.16
2016-07-03T04:31:21.857Z,56.26
2016-07-03T04:32:21.878Z,56.16
2016-07-03T04:33:21.902Z,56.54
2016-07-03T04:34:21.926Z,56.16
2016-07-03T04:35:21.948Z,56.16
2016-07-03T04:36:21.972Z,56.07
2016-07-03T04:37:21.995Z,56.35
2016-07-03T04:38:22.019Z,56.26
2016-07-03T04:39:22.044Z,56.16
2016-07-03T04:40:22.063Z,56.45
2016-07-03T04:41:22.092Z,56.74
2016-07-03T04:42:22.112Z,56.16
2016-07-03T04:43:22.137Z,57.03
2016-07-03T04:44:22.159Z,56.54
2016-07-03T04:45:22.182Z,56.93
2016-07-03T04:46:22.202Z,57.12
2016-07-03T04:47:22.226Z,57.31
2016-07-03T04:48:22.264Z,57.21
2016-07-03T04:49:22.363Z,56.54
2016-07-03T04:50:22.294Z,56.45
2016-07-03T04:51:22.326Z,56.54
2016-07-03T04:52:22.338Z,56.74
2016-07-03T04:53:22.365Z,57.03
2016-07-03T04:54:22.431Z,56.54
2016-07-03T04:55:22.410Z,56.74
2016-07-03T04:56:22.431Z,56.64
2016-07-03T04:57:22.456Z,56.74
2016-07-03T04:58:22.473Z,56.74
2016-07-03T04:59:22.500Z,56.64
2016-07-03T05:00:22.527Z,56.45
2016-07-03T05:01:22.542Z,56.74
2016-07-03T05:02:22.563Z,56.64
2016-07-03T05:03:22.592Z,56.54
2016-07-03T05:04:22.613Z,56.93
2016-07-03T05:05:22.630Z,57.12
2016-07-03T05:06:22.655Z,56.45
2016-07-03T05:07:22.681Z,56.74
2016-07-03T05:08:22.696Z,57.41
2016-07-03T05:09:22.728Z,57.31
2016-07-03T05:10:22.745Z,57.21
2016-07-03T05:11:22.767Z,57.12
2016-07-03T05:12:22.793Z,56.74
2016-07-03T05:13:22.813Z,56.83
2016-07-03T05:14:22.836Z,57.12
2016-07-03T05:15:22.865Z,56.74
2016-07-03T05:16:22.884Z,57.12
2016-07-03T05:17:22.906Z,56.83
2016-07-03T05:18:22.929Z,56.64
2016-07-03T05:19:22.953Z,56.83
2016-07-03T05:20:22.977Z,56.35
2016-07-03T05:21:22.998Z,56.74
2016-07-03T05:22:23.021Z,56.83
2016-07-03T05:23:23.043Z,56.83
2016-07-03T05:24:23.067Z,56.64
2016-07-03T05:25:23.089Z,56.83
2016-07-03T05:26:23.113Z,57.12
2016-07-03T05:27:23.138Z,57.21
2016-07-03T05:28:23.162Z,56.74
2016-07-03T05:29:23.180Z,57.31
2016-07-03T05:30:23.207Z,57.41
2016-07-03T05:31:23.228Z,56.83
2016-07-03T05:32:23.252Z,57.12
2016-07-03T05:33:23.274Z,57.03
2016-07-03T05:34:23.298Z,57.31
2016-07-03T05:35:23.319Z,57.31
2016-07-03T05:36:23.345Z,56.64
2016-07-03T05:37:23.363Z,56.45
2016-07-03T05:38:23.393Z,56.74
2016-07-03T05:39:23.411Z,56.45
2016-07-03T05:40:23.438Z,56.74
2016-07-03T05:41:23.458Z,56.83
2016-07-03T05:42:23.477Z,56.74
2016-07-03T05:43:23.504Z,56.83
2016-07-03T05:44:23.525Z,56.54
2016-07-03T05:45:23.548Z,56.64
2016-07-03T05:46:23.574Z,56.93
2016-07-03T05:47:23.593Z,56.93
2016-07-03T05:48:23.619Z,56.54
2016-07-03T05:49:23.728Z,56.74
2016-07-03T05:50:23.752Z,56.26
2016-07-03T05:51:23.754Z,56.35
2016-07-03T05:52:23.775Z,56.45
2016-07-03T05:53:23.983Z,56.45
2016-07-03T05:54:23.954Z,56.45
2016-07-03T05:55:23.962Z,56.35
2016-07-03T05:56:23.976Z,56.54
2016-07-03T05:57:23.885Z,56.54
2016-07-03T05:58:24.020Z,56.16
2016-07-03T05:59:24.032Z,55.87
2016-07-03T06:00:24.042Z,56.16
2016-07-03T06:01:24.050Z,55.97
2016-07-03T06:02:24.062Z,56.26
2016-07-03T06:03:24.062Z,55.78
2016-07-03T06:04:24.068Z,55.68
2016-07-03T06:05:24.078Z,56.07
2016-07-03T06:06:24.089Z,55.87
2016-07-03T06:07:24.097Z,55.97
2016-07-03T06:08:24.169Z,55.97
2016-07-03T06:09:24.191Z,55.71
2016-07-03T06:10:24.124Z,55.87
2016-07-03T06:11:24.148Z,55.4
2016-07-03T06:12:24.175Z,55.58
2016-07-03T06:13:24.195Z,55.68
2016-07-03T06:14:24.218Z,55.3
2016-07-03T06:15:24.238Z,55.58
2016-07-03T06:16:24.260Z,55.49
2016-07-03T06:17:24.285Z,55.4
2016-07-03T06:18:24.308Z,55.52
2016-07-03T06:19:24.329Z,55.42
2016-07-03T06:20:24.354Z,55.42
2016-07-03T06:21:24.377Z,55.42
2016-07-03T06:22:24.401Z,55.42
2016-07-03T06:23:24.424Z,55.71
2016-07-03T06:24:25.064Z,55.71
2016-07-03T06:25:24.470Z,55.62
2016-07-03T06:26:24.495Z,55.13
2016-07-03T06:27:24.516Z,55.13
2016-07-03T06:28:24.543Z,55.13
2016-07-03T06:29:24.559Z,55.23
2016-07-03T06:30:24.584Z,55.13
2016-07-03T06:31:24.607Z,55.13
2016-07-03T06:32:24.632Z,55.13
2016-07-03T06:33:24.653Z,55.13
2016-07-03T06:34:24.676Z,55.33
2016-07-03T06:35:24.701Z,55.23
2016-07-03T06:36:24.722Z,54.94
2016-07-03T06:37:24.743Z,54.66
2016-07-03T06:38:24.771Z,55.23
2016-07-03T06:39:24.794Z,55.13
2016-07-03T06:40:24.812Z,55.13
2016-07-03T06:41:24.832Z,54.94
2016-07-03T06:42:24.860Z,54.85
2016-07-03T06:43:24.875Z,55.23
2016-07-03T06:44:24.901Z,55.23
2016-07-03T06:45:24.939Z,55.23
2016-07-03T06:46:24.952Z,55.04
2016-07-03T06:47:24.975Z,55.23
2016-07-03T06:48:24.994Z,55.26
2016-07-03T06:49:25.018Z,55.74
2016-07-03T06:50:25.038Z,55.64
2016-07-03T06:51:25.063Z,55.74
2016-07-03T06:52:25.091Z,55.83
2016-07-03T06:53:25.112Z,55.16
2016-07-03T06:54:25.130Z,55.83
2016-07-03T06:55:25.158Z,55.64
2016-07-03T06:56:25.177Z,55.35
2016-07-03T06:57:25.204Z,55.55
2016-07-03T06:58:25.229Z,55.26
2016-07-03T06:59:25.248Z,55.45
2016-07-03T07:00:25.277Z,55.26
2016-07-03T07:01:25.295Z,55.26
2016-07-03T07:02:25.315Z,55.26
2016-07-03T07:03:25.341Z,55.74
2016-07-03T07:04:25.368Z,55.55
2016-07-03T07:05:25.388Z,55.55
2016-07-03T07:06:25.412Z,55.35
2016-07-03T07:07:25.439Z,55.64
2016-07-03T07:08:25.461Z,55.29
2016-07-03T07:09:25.477Z,55.64
2016-07-03T07:10:25.506Z,55.67
2016-07-03T07:11:25.527Z,55.38
2016-07-03T07:12:25.556Z,55.67
2016-07-03T07:13:25.573Z,55.19
2016-07-03T07:14:25.598Z,55.67
2016-07-03T07:15:25.622Z,56.05
2016-07-03T07:16:25.644Z,55.47
2016-07-03T07:17:25.660Z,55.77
2016-07-03T07:18:25.689Z,55.77
2016-07-03T07:19:25.713Z,55.38
2016-07-03T07:20:25.740Z,55.51
2016-07-03T07:21:25.761Z,55.32
2016-07-03T07:22:25.786Z,55.6
2016-07-03T07:23:25.826Z,55.79
2016-07-03T07:24:25.831Z,55.32
2016-07-03T07:25:25.855Z,55.22
2016-07-03T07:26:25.884Z,54.93
2016-07-03T07:27:25.906Z,54.25
2016-07-03T07:28:25.926Z,54.77
2016-07-03T07:29:25.948Z,54.38
2016-07-03T07:30:25.989Z,54.57
2016-07-03T07:31:25.998Z,54.09
2016-07-03T07:32:26.023Z,54.77
2016-07-03T07:33:26.043Z,54.38
2016-07-03T07:34:26.077Z,54.77
2016-07-03T07:35:26.189Z,54.19
2016-07-03T07:36:26.883Z,53.7
2016-07-03T07:37:26.833Z,53.92
2016-07-03T07:38:26.181Z,53.74
2016-07-03T07:39:26.203Z,53.45
2016-07-03T07:40:26.226Z,53.06
2016-07-03T07:41:26.236Z,53.06
2016-07-03T07:42:26.335Z,52.87
2016-07-03T07:43:26.302Z,52.77
2016-07-03T07:44:26.316Z,52.22
2016-07-03T07:45:26.330Z,51.55
2016-07-03T07:46:26.995Z,51.17
2016-07-03T07:47:26.399Z,51.26
2016-07-03T07:48:27.321Z,51.17
2016-07-03T07:49:27.114Z,50.81
2016-07-03T07:50:26.674Z,50.61
2016-07-03T07:51:26.716Z,50.13
2016-07-03T07:52:26.557Z,50.04
2016-07-03T07:53:26.606Z,49.46
2016-07-03T07:54:26.548Z,49.17
2016-07-03T07:55:27.288Z,49.46
2016-07-03T07:56:27.321Z,48.59
2016-07-03T07:57:28.159Z,48.79
2016-07-03T07:58:26.742Z,47.75
2016-07-03T07:59:26.752Z,47.17
2016-07-03T08:00:26.744Z,47.46
2016-07-03T08:01:26.751Z,47.56
2016-07-03T08:02:26.809Z,47.36
2016-07-03T08:03:26.805Z,47.36
2016-07-03T08:04:26.916Z,46.88
2016-07-03T08:05:26.956Z,46.5
2016-07-03T08:06:26.989Z,45.73
2016-07-03T08:07:26.933Z,45.27
2016-07-03T08:08:26.945Z,45.07
2016-07-03T08:09:26.982Z,45.07
2016-07-03T08:10:27.006Z,45.17
2016-07-03T08:11:27.019Z,45.07
2016-07-03T08:12:27.097Z,44.98
2016-07-03T08:13:27.055Z,44.59
2016-07-03T08:14:27.082Z,44.49
2016-07-03T08:15:27.116Z,44.21
2016-07-03T08:16:27.154Z,43.73
2016-07-03T08:17:27.474Z,43.85
2016-07-03T08:18:27.232Z,43.65
2016-07-03T08:19:27.222Z,43.94
2016-07-03T08:20:27.252Z,42.79
2016-07-03T08:21:27.294Z,42.88
2016-07-03T08:22:27.323Z,42.69
2016-07-03T08:23:27.358Z,42.49
2016-07-03T08:24:27.356Z,42.49
2016-07-03T08:25:28.003Z,42.4
2016-07-03T08:26:27.418Z,42.32
2016-07-03T08:27:27.365Z,42.13
2016-07-03T08:28:27.374Z,42.23
2016-07-03T08:29:27.397Z,41.94
2016-07-03T08:30:27.429Z,42.03
2016-07-03T08:31:27.452Z,41.94
2016-07-03T08:32:27.478Z,41.27
2016-07-03T08:33:27.505Z,41.17
2016-07-03T08:34:27.527Z,41.09
2016-07-03T08:35:27.555Z,40.8
2016-07-03T08:36:27.580Z,40.8
2016-07-03T08:37:27.610Z,40.99
2016-07-03T08:38:27.632Z,40.99
2016-07-03T08:39:27.655Z,40.8
2016-07-03T08:40:27.677Z,40.22
2016-07-03T08:41:27.705Z,40.05
2016-07-03T08:42:27.731Z,39.86
2016-07-03T08:43:27.761Z,39.18
2016-07-03T08:44:27.779Z,39.28
2016-07-03T08:45:28.419Z,38.89
2016-07-03T08:46:27.829Z,38.89
2016-07-03T08:47:27.853Z,38.81
2016-07-03T08:48:27.876Z,38.6
2016-07-03T08:49:27.909Z,37.75
2016-07-03T08:50:27.933Z,37.27
2016-07-03T08:51:27.962Z,36.79
2016-07-03T08:52:27.981Z,36.4
2016-07-03T08:53:28.012Z,36.3
2016-07-03T08:54:28.037Z,36.4
2016-07-03T08:55:28.061Z,35.94
2016-07-03T08:56:28.085Z,35.94
2016-07-03T08:57:28.110Z,36.13
2016-07-03T08:58:28.129Z,36.22
2016-07-03T08:59:28.154Z,35.55
2016-07-03T09:00:28.188Z,35.64
2016-07-03T09:01:28.213Z,35.74
2016-07-03T09:02:28.232Z,35.76
2016-07-03T09:03:28.261Z,35.76
2016-07-03T09:04:28.283Z,35.37
2016-07-03T09:05:28.315Z,35.57
2016-07-03T09:06:28.345Z,35.08
2016-07-03T09:07:28.367Z,34.79
2016-07-03T09:08:28.393Z,34.12
2016-07-03T09:09:28.423Z,34.62
2016-07-03T09:10:28.449Z,34.13
2016-07-03T09:11:28.475Z,33.65
2016-07-03T09:12:28.501Z,34.04
2016-07-03T09:13:28.532Z,34.05
2016-07-03T09:14:28.552Z,33.67
2016-07-03T09:15:28.669Z,33.18
2016-07-03T09:16:28.606Z,32.89
2016-07-03T09:17:29.244Z,32.41
2016-07-03T09:18:28.659Z,32.41
2016-07-03T09:19:28.686Z,32.31
2016-07-03T09:20:28.712Z,32.6
2016-07-03T09:21:28.739Z,31.93
2016-07-03T09:22:28.763Z,31.73
2016-07-03T09:23:28.788Z,32.41
2016-07-03T09:24:28.817Z,31.73
2016-07-03T09:25:28.842Z,31.93
2016-07-03T09:26:28.872Z,32.02
2016-07-03T09:27:28.898Z,32.02
2016-07-03T09:28:28.923Z,32.14
2016-07-03T09:29:28.952Z,31.56
2016-07-03T09:30:28.982Z,31.56
2016-07-03T09:31:29.006Z,31.16
2016-07-03T09:32:29.036Z,31.36
2016-07-03T09:33:29.062Z,31.16
2016-07-03T09:34:29.087Z,30.58
2016-07-03T09:35:29.111Z,30.49
2016-07-03T09:36:29.135Z,30.39
2016-07-03T09:37:29.168Z,30.49
2016-07-03T09:38:29.193Z,30.68
2016-07-03T09:39:29.225Z,30.39
2016-07-03T09:40:29.251Z,30.49
2016-07-03T09:41:29.279Z,30.41
2016-07-03T09:42:29.308Z,30.21
2016-07-03T09:43:29.334Z,30.31
2016-07-03T09:44:29.363Z,30.02
2016-07-03T09:45:29.385Z,29.53
2016-07-03T09:46:29.414Z,29.74
2016-07-03T09:47:29.442Z,29.55
2016-07-03T09:48:29.467Z,29.46
2016-07-03T09:49:29.495Z,29.06
2016-07-03T09:50:29.514Z,29.06
2016-07-03T09:51:29.549Z,28.97
2016-07-03T09:52:29.579Z,29.06
2016-07-03T09:53:29.599Z,29.74
2016-07-03T09:54:29.630Z,29.64
2016-07-03T09:55:29.663Z,29.84
2016-07-03T09:56:29.683Z,29.85
2016-07-03T09:57:29.720Z,29.17
2016-07-03T09:58:29.741Z,29.08
2016-07-03T09:59:29.769Z,28.98
2016-07-03T10:00:29.805Z,28.89
2016-07-03T10:01:29.828Z,28.89
2016-07-03T10:02:29.854Z,28.5
2016-07-03T10:03:29.887Z,29.08
2016-07-03T10:04:29.914Z,28.59
2016-07-03T10:05:29.939Z,28.22
2016-07-03T10:06:29.971Z,28.51
2016-07-03T10:07:29.999Z,29.1
2016-07-03T10:08:30.023Z,29.19
2016-07-03T10:09:30.059Z,29.19
2016-07-03T10:10:30.090Z,28.8
2016-07-03T10:11:30.117Z,28.51
2016-07-03T10:12:30.140Z,28.61
2016-07-03T10:13:30.169Z,28.9
2016-07-03T10:14:30.198Z,28.91
2016-07-03T10:15:30.220Z,28.63
2016-07-03T10:16:30.250Z,28.81
2016-07-03T10:17:30.280Z,28.23
2016-07-03T10:18:30.310Z,28.04
2016-07-03T10:19:30.340Z,27.66
2016-07-03T10:20:30.362Z,27.75
2016-07-03T10:21:30.392Z,27.56
2016-07-03T10:22:30.422Z,27.75
2016-07-03T10:23:30.453Z,28.23
2016-07-03T10:24:30.479Z,27.57
2016-07-03T10:25:30.510Z,28.05
2016-07-03T10:26:30.535Z,28.74
2016-07-03T10:27:30.572Z,28.74
2016-07-03T10:28:30.597Z,28.83
2016-07-03T10:29:30.623Z,28.74
2016-07-03T10:30:30.656Z,28.64
2016-07-03T10:31:30.684Z,28.85
2016-07-03T10:32:30.717Z,28.54
2016-07-03T10:33:30.753Z,28.17
2016-07-03T10:34:30.776Z,27.87
2016-07-03T10:35:30.800Z,27.48
2016-07-03T10:36:30.828Z,27.76
2016-07-03T10:37:30.858Z,27.1
2016-07-03T10:38:30.887Z,27.08
2016-07-03T10:39:30.911Z,26.89
2016-07-03T10:40:30.945Z,26.6
2016-07-03T10:41:30.972Z,26.4
2016-07-03T10:42:31.005Z,25.73
2016-07-03T10:43:31.039Z,26.31
2016-07-03T10:44:31.059Z,26.11
2016-07-03T10:45:31.093Z,26.6
2016-07-03T10:46:31.117Z,27.18
2016-07-03T10:47:31.149Z,27.28
2016-07-03T10:48:31.186Z,27.18
2016-07-03T10:49:31.207Z,27.47
2016-07-03T10:50:31.234Z,27.76
2016-07-03T10:51:31.265Z,28.25
2016-07-03T10:52:31.292Z,28.44
2016-07-03T10:53:31.323Z,28.54
2016-07-03T10:54:31.360Z,28.93
2016-07-03T10:55:31.999Z,27.97
2016-07-03T10:56:31.408Z,27.97
2016-07-03T10:57:31.439Z,27.68
2016-07-03T10:58:31.470Z,27.68
2016-07-03T10:59:31.505Z,27.68
2016-07-03T11:00:31.529Z,28.07
2016-07-03T11:01:31.558Z,28.07
2016-07-03T11:02:31.586Z,27.39
2016-07-03T11:03:31.614Z,27.79
2016-07-03T11:04:31.645Z,27.79
2016-07-03T11:05:31.676Z,27.59
2016-07-03T11:06:31.716Z,27.5
2016-07-03T11:07:31.737Z,28.08
2016-07-03T11:08:31.767Z,28.18
2016-07-03T11:09:31.796Z,28.09
2016-07-03T11:10:32.448Z,28.09
2016-07-03T11:11:31.857Z,28.19
2016-07-03T11:12:31.884Z,27.61
2016-07-03T11:13:31.920Z,27.8
2016-07-03T11:14:31.946Z,27.72
2016-07-03T11:15:31.975Z,27.23
2016-07-03T11:16:32.007Z,27.23
2016-07-03T11:17:32.038Z,27.04
2016-07-03T11:18:32.065Z,27.15
2016-07-03T11:19:32.098Z,26.67
2016-07-03T11:20:32.127Z,26.47
2016-07-03T11:21:32.161Z,26.48
2016-07-03T11:22:32.187Z,26.19
2016-07-03T11:23:32.215Z,26.19
2016-07-03T11:24:32.251Z,26.29
2016-07-03T11:25:32.274Z,25.91
2016-07-03T11:26:32.309Z,25.91
2016-07-03T11:27:32.344Z,25.13
2016-07-03T11:28:32.378Z,25.23
2016-07-03T11:29:32.403Z,25.53
2016-07-03T11:30:32.437Z,24.85
2016-07-03T11:31:32.461Z,24.46
2016-07-03T11:32:32.493Z,24.27
2016-07-03T11:33:32.531Z,24.46
2016-07-03T11:34:32.553Z,24.17
2016-07-03T11:35:32.587Z,24.18
2016-07-03T11:36:32.619Z,24.48
2016-07-03T11:37:32.649Z,24.18
2016-07-03T11:38:32.678Z,23.69
2016-07-03T11:39:32.712Z,23.79
2016-07-03T11:40:32.748Z,22.81
2016-07-03T11:41:32.773Z,22.91
2016-07-03T11:42:32.804Z,22.72
2016-07-03T11:43:32.839Z,22.81
2016-07-03T11:44:32.868Z,22.23
2016-07-03T11:45:32.902Z,22.33
2016-07-03T11:46:32.928Z,21.55
2016-07-03T11:47:32.962Z,22.13
2016-07-03T11:48:32.989Z,22.03
2016-07-03T11:49:33.024Z,22.31
2016-07-03T11:50:33.049Z,21.92
2016-07-03T11:51:33.084Z,22.12
2016-07-03T11:52:33.114Z,22.5
2016-07-03T11:53:33.150Z,22.89
2016-07-03T11:54:33.176Z,23.39
2016-07-03T11:55:33.213Z,24.26
2016-07-03T11:56:33.243Z,24.76
2016-07-03T11:57:33.276Z,25.53
2016-07-03T11:58:33.306Z,25.43
2016-07-03T11:59:33.336Z,25.34
2016-07-03T12:00:33.366Z,25.53
2016-07-03T12:01:33.397Z,25.24
2016-07-03T12:02:33.433Z,25.04
2016-07-03T12:03:33.464Z,25.24
2016-07-03T12:04:33.499Z,25.14
2016-07-03T12:05:33.522Z,25.14
2016-07-03T12:06:33.556Z,24.96
2016-07-03T12:07:33.583Z,24.77
2016-07-03T12:08:33.619Z,24.96
2016-07-03T12:09:33.648Z,24.48
2016-07-03T12:10:34.293Z,24.29
2016-07-03T12:11:33.711Z,24
2016-07-03T12:12:33.747Z,24.1
2016-07-03T12:13:33.776Z,23.71
2016-07-03T12:14:33.811Z,23.8
2016-07-03T12:15:33.840Z,23.33
2016-07-03T12:16:33.875Z,23.23
2016-07-03T12:17:33.903Z,23.03
2016-07-03T12:18:33.936Z,23.05
2016-07-03T12:19:33.964Z,22.17
2016-07-03T12:20:34.002Z,22.07
2016-07-03T12:21:34.031Z,22.27
2016-07-03T12:22:34.064Z,21.88
2016-07-03T12:23:34.092Z,22.07
2016-07-03T12:24:34.128Z,21.78
2016-07-03T12:25:34.157Z,21.39
2016-07-03T12:26:34.194Z,21.2
2016-07-03T12:27:34.219Z,20.9
2016-07-03T12:28:34.258Z,20.82
2016-07-03T12:29:34.287Z,20.14
2016-07-03T12:30:34.320Z,19.65
2016-07-03T12:31:34.351Z,19.56
2016-07-03T12:32:34.384Z,19.56
2016-07-03T12:33:34.419Z,19.56
2016-07-03T12:34:34.455Z,19.76
2016-07-03T12:35:34.480Z,19.47
2016-07-03T12:36:34.512Z,19.47
2016-07-03T12:37:34.547Z,18.98
2016-07-03T12:38:34.578Z,18.98
2016-07-03T12:39:34.611Z,18.89
2016-07-03T12:40:34.647Z,18.79
2016-07-03T12:41:34.676Z,18.7
2016-07-03T12:42:34.712Z,18.5
2016-07-03T12:43:34.742Z,18.8
2016-07-03T12:44:34.775Z,18.41
2016-07-03T12:45:34.809Z,18.21
2016-07-03T12:46:34.844Z,18.12
2016-07-03T12:47:34.876Z,17.14
2016-07-03T12:48:34.908Z,17.53
2016-07-03T12:49:34.942Z,17.44
2016-07-03T12:50:34.973Z,17.05
2016-07-03T12:51:35.005Z,16.95
2016-07-03T12:52:35.041Z,16.75
2016-07-03T12:53:35.071Z,16.56
2016-07-03T12:54:35.105Z,16.56